LRAR - ARAD

Compiled: 17:58:14 on 22/07/2018

Latest METAR/SPECI Reports

METAR LRAR 221730Z AUTO 26002KT 9999 NCD 22/20 Q1008=

Previous reports

METAR LRAR 221700Z AUTO 22002KT 9999 NCD 23/20 Q1009=
METAR LRAR 221630Z AUTO 00000KT 9999 NCD 24/18 Q1009=
METAR LRAR 221600Z 36003KT 320V040 9999 SCT033 25/19 Q1009 R09/29//95=
METAR LRAR 221530Z 36003KT 320V040 9999 SCT033 25/19 Q1008 R09/29//95=

Latest TAF report

TAF AMD LRAR 221704Z 2217/2224 CNL=

Valid WARNINGS

No valid warnings for LRAR